^^
Station Historical Data
Daily Summary for August 26, 2017 Units:  Both    English   Metric
« Previous Day
Next Day »
Daily Weekly Monthly Yearly Custom
  High: Low: Average:
Temperature: TemperatureF °F /  -17.8 °C 44.1 °F /  6.7 °C 62.2 °F /  16.8 °C
Dew Point: DewpointF °F /  -17.8 °C -1.3 °F /  -18.5 °C 10.3 °F /  -12.1 °C
Humidity: Humidity% 4% 15%
Wind Speed: WindSpeedMPHmph /  0km/h - 1mph /  1.6km/h
Wind Gust: WindSpeedGustMPHmph /  0km/h - -
Wind- - South
Pressure: PressureIn in /  0 hPa 29.86 in /  1011.1 hPa -
Precipitation: 0.00 in /  0 mm    
Historical Graphs
 
 
Tabular Data for August 26, 2017
Time Temperature Dew Point Pressure Wind Wind Speed Wind Gust Humidity Rainfall Rate (Hourly) solar Conditions
TemperatureF °F /  -17.8 °C DewpointF °F /  -17.8 °C PressureInin /  0hPa Calm     Humidity% HourlyPrecipInin /  0mm SolarRadiationWatts/m^2 W/m2 Conditions
00:03 52.7 °F /  11.5 °C 11.7 °F /  -11.3 °C 30.00in /  1015.8hPa Calm   1.0mph /  1.6km/h 19% 0.00in /  0mm 0.0 W/m2
00:09 52.5 °F /  11.4 °C 11.5 °F /  -11.4 °C 30.00in /  1015.8hPa Calm   1.0mph /  1.6km/h 19% 0.00in /  0mm 0.0 W/m2
00:16 52.2 °F /  11.2 °C 11.1 °F /  -11.6 °C 30.00in /  1015.8hPa Calm   1.0mph /  1.6km/h 19% 0.00in /  0mm 0.0 W/m2
00:22 52.0 °F /  11.1 °C 10.9 °F /  -11.7 °C 30.00in /  1015.8hPa Calm     19% 0.00in /  0mm 0.0 W/m2
00:28 51.3 °F /  10.7 °C 10.4 °F /  -12 °C 29.99in /  1015.5hPa Calm     19% 0.00in /  0mm 0.0 W/m2
00:34 50.7 °F /  10.4 °C 11.1 °F /  -11.6 °C 29.99in /  1015.5hPa Calm   4.0mph /  6.4km/h 20% 0.00in /  0mm 0.0 W/m2
00:40 49.8 °F /  9.9 °C 10.4 °F /  -12 °C 29.99in /  1015.5hPa Calm     20% 0.00in /  0mm 0.0 W/m2
00:46 49.3 °F /  9.6 °C 10.9 °F /  -11.7 °C 29.99in /  1015.5hPa Calm     21% 0.00in /  0mm 0.0 W/m2
00:52 48.7 °F /  9.3 °C 10.6 °F /  -11.9 °C 29.99in /  1015.5hPa Calm   1.0mph /  1.6km/h 21% 0.00in /  0mm 0.0 W/m2
00:59 48.4 °F /  9.1 °C 11.3 °F /  -11.5 °C 29.99in /  1015.5hPa Calm     22% 0.00in /  0mm 0.0 W/m2
01:05 47.8 °F /  8.8 °C 10.8 °F /  -11.8 °C 29.99in /  1015.5hPa Calm     22% 0.00in /  0mm 0.0 W/m2
01:11 47.5 °F /  8.6 °C 10.6 °F /  -11.9 °C 29.99in /  1015.5hPa Calm     22% 0.00in /  0mm 0.0 W/m2
01:17 46.9 °F /  8.3 °C 10.0 °F /  -12.2 °C 29.99in /  1015.5hPa SW 0.9mph /  1.4km/h 1.0mph /  1.6km/h 22% 0.00in /  0mm 0.0 W/m2
01:23 46.6 °F /  8.1 °C 9.7 °F /  -12.4 °C 29.99in /  1015.5hPa Calm   1.0mph /  1.6km/h 22% 0.00in /  0mm 0.0 W/m2
01:29 46.2 °F /  7.9 °C 11.5 °F /  -11.4 °C 29.99in /  1015.5hPa Calm   1.0mph /  1.6km/h 24% 0.00in /  0mm 0.0 W/m2
01:35 46.2 °F /  7.9 °C 10.4 °F /  -12 °C 29.99in /  1015.5hPa Calm   1.0mph /  1.6km/h 23% 0.00in /  0mm 0.0 W/m2
01:41 46.0 °F /  7.8 °C 10.2 °F /  -12.1 °C 29.99in /  1015.5hPa Calm     23% 0.00in /  0mm 0.0 W/m2
01:48 45.9 °F /  7.7 °C 11.1 °F /  -11.6 °C 29.99in /  1015.5hPa Calm     24% 0.00in /  0mm 0.0 W/m2
01:54 45.7 °F /  7.6 °C 11.8 °F /  -11.2 °C 29.99in /  1015.5hPa Calm   2.0mph /  3.2km/h 25% 0.00in /  0mm 0.0 W/m2
02:00 45.7 °F /  7.6 °C 11.8 °F /  -11.2 °C 29.99in /  1015.5hPa Calm   1.0mph /  1.6km/h 25% 0.00in /  0mm 0.0 W/m2
02:06 45.9 °F /  7.7 °C 11.1 °F /  -11.6 °C 29.99in /  1015.5hPa Calm   1.0mph /  1.6km/h 24% 0.00in /  0mm 0.0 W/m2
02:12 45.9 °F /  7.7 °C 11.1 °F /  -11.6 °C 29.99in /  1015.5hPa Calm     24% 0.00in /  0mm 0.0 W/m2
02:18 45.5 °F /  7.5 °C 10.8 °F /  -11.8 °C 29.99in /  1015.5hPa Calm     24% 0.00in /  0mm 0.0 W/m2
02:24 45.1 °F /  7.3 °C 11.5 °F /  -11.4 °C 29.99in /  1015.5hPa Calm     25% 0.00in /  0mm 0.0 W/m2
02:30 45.0 °F /  7.2 °C 11.3 °F /  -11.5 °C 29.99in /  1015.5hPa Calm   1.0mph /  1.6km/h 25% 0.00in /  0mm 0.0 W/m2
02:36 44.8 °F /  7.1 °C 12.0 °F /  -11.1 °C 29.99in /  1015.5hPa Calm     26% 0.00in /  0mm 0.0 W/m2
02:43 44.8 °F /  7.1 °C 12.7 °F /  -10.7 °C 29.99in /  1015.5hPa Calm   1.0mph /  1.6km/h 27% 0.00in /  0mm 0.0 W/m2
02:49 44.4 °F /  6.9 °C 12.6 °F /  -10.8 °C 29.98in /  1015.1hPa Calm     27% 0.00in /  0mm 0.0 W/m2
02:55 44.2 °F /  6.8 °C 12.4 °F /  -10.9 °C 29.98in /  1015.1hPa Calm     27% 0.00in /  0mm 0.0 W/m2
03:01 44.2 °F /  6.8 °C 12.4 °F /  -10.9 °C 29.98in /  1015.1hPa Calm     27% 0.00in /  0mm 0.0 W/m2
03:07 44.1 °F /  6.7 °C 13.1 °F /  -10.5 °C 29.99in /  1015.5hPa Calm   1.0mph /  1.6km/h 28% 0.00in /  0mm 0.0 W/m2
03:13 44.1 °F /  6.7 °C 13.8 °F /  -10.1 °C 29.98in /  1015.1hPa Calm     29% 0.00in /  0mm 0.0 W/m2
03:19 44.1 °F /  6.7 °C 13.8 °F /  -10.1 °C 29.98in /  1015.1hPa Calm   1.0mph /  1.6km/h 29% 0.00in /  0mm 0.0 W/m2
03:26 44.1 °F /  6.7 °C 13.8 °F /  -10.1 °C 29.98in /  1015.1hPa Calm   1.0mph /  1.6km/h 29% 0.00in /  0mm 0.0 W/m2
03:32 44.2 °F /  6.8 °C 14.7 °F /  -9.6 °C 29.98in /  1015.1hPa Calm   2.0mph /  3.2km/h 30% 0.00in /  0mm 0.0 W/m2
03:38 44.4 °F /  6.9 °C 14.2 °F /  -9.9 °C 29.98in /  1015.1hPa Calm   2.0mph /  3.2km/h 29% 0.00in /  0mm 0.0 W/m2
03:44 44.8 °F /  7.1 °C 13.6 °F /  -10.2 °C 29.98in /  1015.1hPa Calm   2.0mph /  3.2km/h 28% 0.00in /  0mm 0.0 W/m2
03:50 45.3 °F /  7.4 °C 14.2 °F /  -9.9 °C 29.98in /  1015.1hPa Calm   1.0mph /  1.6km/h 28% 0.00in /  0mm 0.0 W/m2
03:56 45.7 °F /  7.6 °C 14.4 °F /  -9.8 °C 29.98in /  1015.1hPa Calm   1.0mph /  1.6km/h 28% 0.00in /  0mm 0.0 W/m2
04:02 45.7 °F /  7.6 °C 14.4 °F /  -9.8 °C 29.98in /  1015.1hPa SE 0.9mph /  1.4km/h 2.0mph /  3.2km/h 28% 0.00in /  0mm 0.0 W/m2
04:09 45.7 °F /  7.6 °C 15.3 °F /  -9.3 °C 29.98in /  1015.1hPa Calm     29% 0.00in /  0mm 0.0 W/m2
04:23 45.7 °F /  7.6 °C 15.3 °F /  -9.3 °C 29.98in /  1015.1hPa Calm     29% 0.00in /  0mm 0.0 W/m2
04:29 45.7 °F /  7.6 °C 16.7 °F /  -8.5 °C 29.98in /  1015.1hPa Calm   1.0mph /  1.6km/h 31% 0.00in /  0mm 0.0 W/m2
04:31 45.7 °F /  7.6 °C 16.7 °F /  -8.5 °C 29.98in /  1015.1hPa Calm   1.0mph /  1.6km/h 31% 0.00in /  0mm 0.0 W/m2
04:37 45.7 °F /  7.6 °C 15.3 °F /  -9.3 °C 29.98in /  1015.1hPa Calm     29% 0.00in /  0mm 0.0 W/m2
04:43 45.7 °F /  7.6 °C 16.0 °F /  -8.9 °C 29.98in /  1015.1hPa Calm   1.0mph /  1.6km/h 30% 0.00in /  0mm 0.0 W/m2
04:45 45.7 °F /  7.6 °C 16.0 °F /  -8.9 °C 29.98in /  1015.1hPa Calm   1.0mph /  1.6km/h 30% 0.00in /  0mm 0.0 W/m2
04:50 45.7 °F /  7.6 °C 16.0 °F /  -8.9 °C 29.98in /  1015.1hPa Calm   1.0mph /  1.6km/h 30% 0.00in /  0mm 0.0 W/m2
04:56 45.7 °F /  7.6 °C 14.4 °F /  -9.8 °C 29.98in /  1015.1hPa ESE 4.0mph /  6.4km/h 4.0mph /  6.4km/h 28% 0.00in /  0mm 0.0 W/m2
05:00 45.9 °F /  7.7 °C 15.4 °F /  -9.2 °C 29.98in /  1015.1hPa Calm   2.0mph /  3.2km/h 29% 0.00in /  0mm 0.0 W/m2
05:06 46.0 °F /  7.8 °C 15.6 °F /  -9.1 °C 29.98in /  1015.1hPa Calm   2.0mph /  3.2km/h 29% 0.00in /  0mm 0.0 W/m2
05:12 46.2 °F /  7.9 °C 14.9 °F /  -9.5 °C 29.98in /  1015.1hPa ESE 0.9mph /  1.4km/h 2.0mph /  3.2km/h 28% 0.00in /  0mm 0.0 W/m2
05:18 46.8 °F /  8.2 °C 15.4 °F /  -9.2 °C 29.98in /  1015.1hPa ESE 0.9mph /  1.4km/h 2.0mph /  3.2km/h 28% 0.00in /  0mm 0.0 W/m2
05:24 47.1 °F /  8.4 °C 15.6 °F /  -9.1 °C 29.99in /  1015.5hPa Calm   1.0mph /  1.6km/h 28% 0.00in /  0mm 0.0 W/m2
05:30 47.1 °F /  8.4 °C 15.6 °F /  -9.1 °C 29.98in /  1015.1hPa Calm   1.0mph /  1.6km/h 28% 0.00in /  0mm 0.0 W/m2
05:36 47.5 °F /  8.6 °C 15.1 °F /  -9.4 °C 29.99in /  1015.5hPa Calm   2.0mph /  3.2km/h 27% 0.00in /  0mm 0.0 W/m2
05:43 47.7 °F /  8.7 °C 15.3 °F /  -9.3 °C 29.99in /  1015.5hPa ENE 0.9mph /  1.4km/h 5.0mph /  8km/h 27% 0.00in /  0mm 0.0 W/m2
05:49 48.0 °F /  8.9 °C 14.7 °F /  -9.6 °C 29.99in /  1015.5hPa Calm   6.0mph /  9.7km/h 26% 0.00in /  0mm 0.0 W/m2
05:55 48.6 °F /  9.2 °C 15.3 °F /  -9.3 °C 29.98in /  1015.1hPa Calm   6.0mph /  9.7km/h 26% 0.00in /  0mm 0.0 W/m2
06:01 48.9 °F /  9.4 °C 15.4 °F /  -9.2 °C 29.98in /  1015.1hPa East 2.0mph /  3.2km/h 5.0mph /  8km/h 26% 0.00in /  0mm 0.0 W/m2
06:07 49.5 °F /  9.7 °C 15.1 °F /  -9.4 °C 29.99in /  1015.5hPa ESE 0.9mph /  1.4km/h 5.0mph /  8km/h 25% 0.00in /  0mm 0.0 W/m2
06:13 49.6 °F /  9.8 °C 15.3 °F /  -9.3 °C 29.99in /  1015.5hPa Calm   5.0mph /  8km/h 25% 0.00in /  0mm 5.0 W/m2
06:19 50.2 °F /  10.1 °C 15.6 °F /  -9.1 °C 29.99in /  1015.5hPa East 2.0mph /  3.2km/h 7.0mph /  11.3km/h 25% 0.00in /  0mm 7.0 W/m2
06:25 50.4 °F /  10.2 °C 15.8 °F /  -9 °C 29.99in /  1015.5hPa ESE 2.9mph /  4.7km/h 6.0mph /  9.7km/h 25% 0.00in /  0mm 11.0 W/m2
06:31 50.5 °F /  10.3 °C 16.0 °F /  -8.9 °C 29.99in /  1015.5hPa NE 6.0mph /  9.7km/h 7.0mph /  11.3km/h 25% 0.00in /  0mm 12.0 W/m2
06:38 51.1 °F /  10.6 °C 15.4 °F /  -9.2 °C 29.99in /  1015.5hPa ENE 4.9mph /  7.9km/h 7.0mph /  11.3km/h 24% 0.00in /  0mm 14.0 W/m2
06:44 51.6 °F /  10.9 °C 16.0 °F /  -8.9 °C 29.99in /  1015.5hPa ENE 2.0mph /  3.2km/h 5.0mph /  8km/h 24% 0.00in /  0mm 16.0 W/m2
06:50 51.8 °F /  11 °C 16.2 °F /  -8.8 °C 29.99in /  1015.5hPa NE 6.9mph /  11.1km/h 9.0mph /  14.5km/h 24% 0.00in /  0mm 18.0 W/m2
06:56 52.2 °F /  11.2 °C 16.5 °F /  -8.6 °C 29.99in /  1015.5hPa NE 4.0mph /  6.4km/h 5.0mph /  8km/h 24% 0.00in /  0mm 19.0 W/m2
07:02 52.5 °F /  11.4 °C 15.8 °F /  -9 °C 29.99in /  1015.5hPa SE 0.9mph /  1.4km/h 8.0mph /  12.9km/h 23% 0.00in /  0mm 19.0 W/m2
07:08 53.1 °F /  11.7 °C 16.2 °F /  -8.8 °C 29.99in /  1015.5hPa NE 2.9mph /  4.7km/h 6.0mph /  9.7km/h 23% 0.00in /  0mm 21.0 W/m2
07:14 53.8 °F /  12.1 °C 15.8 °F /  -9 °C 29.99in /  1015.5hPa ENE 2.9mph /  4.7km/h 9.0mph /  14.5km/h 22% 0.00in /  0mm 23.0 W/m2
07:21 54.5 °F /  12.5 °C 16.3 °F /  -8.7 °C 29.99in /  1015.5hPa NE 2.9mph /  4.7km/h 8.0mph /  12.9km/h 22% 0.00in /  0mm 23.0 W/m2
07:27 55.6 °F /  13.1 °C 16.2 °F /  -8.8 °C 29.99in /  1015.5hPa NNE 4.0mph /  6.4km/h 9.0mph /  14.5km/h 21% 0.00in /  0mm 25.0 W/m2
07:33 56.5 °F /  13.6 °C 15.8 °F /  -9 °C 29.99in /  1015.5hPa NE 0.9mph /  1.4km/h 7.0mph /  11.3km/h 20% 0.00in /  0mm 25.0 W/m2
07:39 57.4 °F /  14.1 °C 15.4 °F /  -9.2 °C 29.99in /  1015.5hPa ENE 0.9mph /  1.4km/h 13.0mph /  20.9km/h 19% 0.00in /  0mm 26.0 W/m2
07:45 58.1 °F /  14.5 °C 16.0 °F /  -8.9 °C 30.00in /  1015.8hPa NE 6.9mph /  11.1km/h 7.0mph /  11.3km/h 19% 0.00in /  0mm 26.0 W/m2
07:51 58.8 °F /  14.9 °C 15.4 °F /  -9.2 °C 29.99in /  1015.5hPa Calm   5.0mph /  8km/h 18% 0.00in /  0mm 26.0 W/m2
07:57 59.5 °F /  15.3 °C 14.7 °F /  -9.6 °C 29.99in /  1015.5hPa NE 4.9mph /  7.9km/h 10.0mph /  16.1km/h 17% 0.00in /  0mm 28.0 W/m2
08:03 60.3 °F /  15.7 °C 15.3 °F /  -9.3 °C 30.00in /  1015.8hPa SE 2.0mph /  3.2km/h 12.0mph /  19.3km/h 17% 0.00in /  0mm 28.0 W/m2
08:09 61.0 °F /  16.1 °C 15.8 °F /  -9 °C 29.99in /  1015.5hPa Calm   9.0mph /  14.5km/h 17% 0.00in /  0mm 30.0 W/m2
08:15 61.9 °F /  16.6 °C 15.3 °F /  -9.3 °C 30.00in /  1015.8hPa NE 2.0mph /  3.2km/h 7.0mph /  11.3km/h 16% 0.00in /  0mm 30.0 W/m2
08:21 62.4 °F /  16.9 °C 14.2 °F /  -9.9 °C 30.00in /  1015.8hPa East 8.1mph /  13km/h 8.1mph /  13km/h 15% 0.00in /  0mm 32.0 W/m2
08:27 63.1 °F /  17.3 °C 14.7 °F /  -9.6 °C 30.00in /  1015.8hPa ENE 4.9mph /  7.9km/h 7.0mph /  11.3km/h 15% 0.00in /  0mm 33.0 W/m2
08:34 63.9 °F /  17.7 °C 15.3 °F /  -9.3 °C 30.00in /  1015.8hPa Calm   4.0mph /  6.4km/h 15% 0.00in /  0mm 56.0 W/m2
08:40 64.8 °F /  18.2 °C 16.0 °F /  -8.9 °C 30.00in /  1015.8hPa ENE 2.9mph /  4.7km/h 5.0mph /  8km/h 15% 0.00in /  0mm 531.0 W/m2
08:42 65.1 °F /  18.4 °C 14.7 °F /  -9.6 °C 30.00in /  1015.8hPa ENE 0.9mph /  1.4km/h 6.0mph /  9.7km/h 14% 0.00in /  0mm 536.0 W/m2
08:48 66.6 °F /  19.2 °C 15.8 °F /  -9 °C 30.00in /  1015.8hPa NE 0.9mph /  1.4km/h 2.0mph /  3.2km/h 14% 0.00in /  0mm 555.0 W/m2
08:54 67.8 °F /  19.9 °C 15.1 °F /  -9.4 °C 29.99in /  1015.5hPa East 0.9mph /  1.4km/h 8.0mph /  12.9km/h 13% 0.00in /  0mm 575.0 W/m2
09:00 68.5 °F /  20.3 °C 15.8 °F /  -9 °C 30.00in /  1015.8hPa Calm   3.0mph /  4.8km/h 13% 0.00in /  0mm 592.0 W/m2
09:06 69.3 °F /  20.7 °C 14.5 °F /  -9.7 °C 30.00in /  1015.8hPa East 4.0mph /  6.4km/h 6.0mph /  9.7km/h 12% 0.00in /  0mm 612.0 W/m2
09:12 70.0 °F /  21.1 °C 16.9 °F /  -8.4 °C 29.99in /  1015.5hPa Calm   7.0mph /  11.3km/h 13% 0.00in /  0mm 631.0 W/m2
09:18 70.5 °F /  21.4 °C 15.4 °F /  -9.2 °C 29.99in /  1015.5hPa East 2.0mph /  3.2km/h 6.0mph /  9.7km/h 12% 0.00in /  0mm 649.0 W/m2
09:25 71.2 °F /  21.8 °C 16.0 °F /  -8.9 °C 29.99in /  1015.5hPa NNE 2.0mph /  3.2km/h 4.0mph /  6.4km/h 12% 0.00in /  0mm 664.0 W/m2
09:31 71.8 °F /  22.1 °C 14.4 °F /  -9.8 °C 29.99in /  1015.5hPa ENE 8.1mph /  13km/h 8.1mph /  13km/h 11% 0.00in /  0mm 679.0 W/m2
09:37 72.3 °F /  22.4 °C 16.9 °F /  -8.4 °C 29.99in /  1015.5hPa East 0.9mph /  1.4km/h 2.0mph /  3.2km/h 12% 0.00in /  0mm 693.0 W/m2
09:43 72.9 °F /  22.7 °C 15.3 °F /  -9.3 °C 29.99in /  1015.5hPa Calm   3.0mph /  4.8km/h 11% 0.00in /  0mm 708.0 W/m2
09:49 73.6 °F /  23.1 °C 13.6 °F /  -10.2 °C 29.99in /  1015.5hPa ENE 2.0mph /  3.2km/h 8.0mph /  12.9km/h 10% 0.00in /  0mm 724.0 W/m2
09:55 74.1 °F /  23.4 °C 14.0 °F /  -10 °C 29.99in /  1015.5hPa NNW 0.9mph /  1.4km/h 7.0mph /  11.3km/h 10% 0.00in /  0mm 737.0 W/m2
10:01 74.8 °F /  23.8 °C 12.2 °F /  -11 °C 29.98in /  1015.1hPa Calm   3.0mph /  4.8km/h 9% 0.00in /  0mm 751.0 W/m2
10:07 75.0 °F /  23.9 °C 12.4 °F /  -10.9 °C 29.98in /  1015.1hPa North 2.9mph /  4.7km/h 7.0mph /  11.3km/h 9% 0.00in /  0mm 759.0 W/m2
10:13 75.7 °F /  24.3 °C 12.9 °F /  -10.6 °C 29.98in /  1015.1hPa Calm   2.0mph /  3.2km/h 9% 0.00in /  0mm 772.0 W/m2
10:20 76.5 °F /  24.7 °C 13.5 °F /  -10.3 °C 29.98in /  1015.1hPa NNW 2.0mph /  3.2km/h 3.0mph /  4.8km/h 9% 0.00in /  0mm 780.0 W/m2
10:26 77.2 °F /  25.1 °C 14.0 °F /  -10 °C 29.98in /  1015.1hPa Calm   3.0mph /  4.8km/h 9% 0.00in /  0mm 793.0 W/m2
10:32 77.7 °F /  25.4 °C 11.7 °F /  -11.3 °C 29.98in /  1015.1hPa NNW 6.0mph /  9.7km/h 9.0mph /  14.5km/h 8% 0.00in /  0mm 803.0 W/m2
10:38 77.7 °F /  25.4 °C 11.7 °F /  -11.3 °C 29.97in /  1014.8hPa NE 4.0mph /  6.4km/h 11.0mph /  17.7km/h 8% 0.00in /  0mm 812.0 W/m2
10:44 77.5 °F /  25.3 °C 11.7 °F /  -11.3 °C 29.97in /  1014.8hPa Calm   5.0mph /  8km/h 8% 0.00in /  0mm 817.0 W/m2
10:50 77.5 °F /  25.3 °C 14.2 °F /  -9.9 °C 29.97in /  1014.8hPa NW 2.0mph /  3.2km/h 3.0mph /  4.8km/h 9% 0.00in /  0mm 823.0 W/m2
10:56 77.7 °F /  25.4 °C 11.7 °F /  -11.3 °C 29.97in /  1014.8hPa NW 4.0mph /  6.4km/h 5.0mph /  8km/h 8% 0.00in /  0mm 828.0 W/m2
11:02 78.3 °F /  25.7 °C 9.1 °F /  -12.7 °C 29.97in /  1014.8hPa North 2.0mph /  3.2km/h 5.0mph /  8km/h 7% 0.00in /  0mm 835.0 W/m2
11:09 78.3 °F /  25.7 °C 9.1 °F /  -12.7 °C 29.96in /  1014.4hPa Calm   6.0mph /  9.7km/h 7% 0.00in /  0mm 837.0 W/m2
11:15 78.1 °F /  25.6 °C 12.0 °F /  -11.1 °C 29.96in /  1014.4hPa Calm   3.0mph /  4.8km/h 8% 0.00in /  0mm 837.0 W/m2
11:21 77.9 °F /  25.5 °C 11.8 °F /  -11.2 °C 29.96in /  1014.4hPa Calm     8% 0.00in /  0mm 842.0 W/m2
11:27 78.1 °F /  25.6 °C 9.0 °F /  -12.8 °C 29.96in /  1014.4hPa NNW 2.0mph /  3.2km/h 6.0mph /  9.7km/h 7% 0.00in /  0mm 849.0 W/m2
11:33 79.0 °F /  26.1 °C 9.7 °F /  -12.4 °C 29.95in /  1014.1hPa ESE 2.9mph /  4.7km/h 5.0mph /  8km/h 7% 0.00in /  0mm 851.0 W/m2
11:39 79.2 °F /  26.2 °C 6.4 °F /  -14.2 °C 29.95in /  1014.1hPa NW 0.9mph /  1.4km/h 1.0mph /  1.6km/h 6% 0.00in /  0mm 854.0 W/m2
11:45 79.3 °F /  26.3 °C 9.9 °F /  -12.3 °C 29.95in /  1014.1hPa NNW 0.9mph /  1.4km/h 7.0mph /  11.3km/h 7% 0.00in /  0mm 853.0 W/m2
11:51 79.7 °F /  26.5 °C 10.2 °F /  -12.1 °C 29.94in /  1013.8hPa Calm   4.0mph /  6.4km/h 7% 0.00in /  0mm 854.0 W/m2
11:58 79.7 °F /  26.5 °C 10.2 °F /  -12.1 °C 29.94in /  1013.8hPa Calm   4.0mph /  6.4km/h 7% 0.00in /  0mm 856.0 W/m2
12:04 79.7 °F /  26.5 °C 10.2 °F /  -12.1 °C 29.94in /  1013.8hPa NW 0.9mph /  1.4km/h 6.0mph /  9.7km/h 7% 0.00in /  0mm 853.0 W/m2
12:10 79.5 °F /  26.4 °C 10.0 °F /  -12.2 °C 29.93in /  1013.4hPa West 2.9mph /  4.7km/h 4.0mph /  6.4km/h 7% 0.00in /  0mm 851.0 W/m2
12:16 79.9 °F /  26.6 °C 10.2 °F /  -12.1 °C 29.93in /  1013.4hPa WNW 2.9mph /  4.7km/h 3.0mph /  4.8km/h 7% 0.00in /  0mm 849.0 W/m2
12:22 79.9 °F /  26.6 °C 10.2 °F /  -12.1 °C 29.92in /  1013.1hPa Calm   3.0mph /  4.8km/h 7% 0.00in /  0mm 842.0 W/m2
12:28 79.9 °F /  26.6 °C 10.2 °F /  -12.1 °C 29.92in /  1013.1hPa NNW 2.0mph /  3.2km/h 6.0mph /  9.7km/h 7% 0.00in /  0mm 838.0 W/m2
12:34 80.2 °F /  26.8 °C 7.2 °F /  -13.8 °C 29.92in /  1013.1hPa NNE 2.0mph /  3.2km/h 4.0mph /  6.4km/h 6% 0.00in /  0mm 837.0 W/m2
12:40 80.4 °F /  26.9 °C 10.8 °F /  -11.8 °C 29.91in /  1012.8hPa NW 0.9mph /  1.4km/h 7.0mph /  11.3km/h 7% 0.00in /  0mm 826.0 W/m2
12:47 80.8 °F /  27.1 °C 7.5 °F /  -13.6 °C 29.91in /  1012.8hPa Calm   5.0mph /  8km/h 6% 0.00in /  0mm 821.0 W/m2
12:53 80.8 °F /  27.1 °C 10.9 °F /  -11.7 °C 29.90in /  1012.4hPa WNW 2.9mph /  4.7km/h 8.0mph /  12.9km/h 7% 0.00in /  0mm 816.0 W/m2
12:59 81.0 °F /  27.2 °C 7.7 °F /  -13.5 °C 29.90in /  1012.4hPa West 2.0mph /  3.2km/h 12.0mph /  19.3km/h 6% 0.00in /  0mm 807.0 W/m2
13:05 81.0 °F /  27.2 °C 7.7 °F /  -13.5 °C 29.90in /  1012.4hPa SW 2.0mph /  3.2km/h 7.0mph /  11.3km/h 6% 0.00in /  0mm 798.0 W/m2
13:11 80.2 °F /  26.8 °C 7.2 °F /  -13.8 °C 29.90in /  1012.4hPa SSW 4.9mph /  7.9km/h 10.0mph /  16.1km/h 6% 0.00in /  0mm 786.0 W/m2
13:17 79.5 °F /  26.4 °C 6.6 °F /  -14.1 °C 29.89in /  1012.1hPa SW 4.0mph /  6.4km/h 6.0mph /  9.7km/h 6% 0.00in /  0mm 779.0 W/m2
13:23 79.2 °F /  26.2 °C 6.4 °F /  -14.2 °C 29.89in /  1012.1hPa West 0.9mph /  1.4km/h 4.0mph /  6.4km/h 6% 0.00in /  0mm 768.0 W/m2
13:29 79.5 °F /  26.4 °C 2.7 °F /  -16.3 °C 29.89in /  1012.1hPa NNW 4.9mph /  7.9km/h 7.0mph /  11.3km/h 5% 0.00in /  0mm 756.0 W/m2
13:36 80.4 °F /  26.9 °C 7.3 °F /  -13.7 °C 29.89in /  1012.1hPa WNW 2.9mph /  4.7km/h 6.0mph /  9.7km/h 6% 0.00in /  0mm 744.0 W/m2
13:42 80.4 °F /  26.9 °C 3.4 °F /  -15.9 °C 29.88in /  1011.7hPa North 0.9mph /  1.4km/h 8.0mph /  12.9km/h 5% 0.00in /  0mm 733.0 W/m2
13:48 80.4 °F /  26.9 °C 7.3 °F /  -13.7 °C 29.88in /  1011.7hPa NNW 2.9mph /  4.7km/h 6.0mph /  9.7km/h 6% 0.00in /  0mm 719.0 W/m2
13:54 80.8 °F /  27.1 °C 7.5 °F /  -13.6 °C 29.88in /  1011.7hPa WNW 0.9mph /  1.4km/h 4.0mph /  6.4km/h 6% 0.00in /  0mm 703.0 W/m2
14:00 81.0 °F /  27.2 °C 3.7 °F /  -15.7 °C 29.88in /  1011.7hPa Calm     5% 0.00in /  0mm 691.0 W/m2
14:06 80.6 °F /  27 °C 3.4 °F /  -15.9 °C 29.88in /  1011.7hPa NE 0.9mph /  1.4km/h 4.0mph /  6.4km/h 5% 0.00in /  0mm 682.0 W/m2
14:12 80.8 °F /  27.1 °C 3.6 °F /  -15.8 °C 29.88in /  1011.7hPa WNW 6.9mph /  11.1km/h 7.0mph /  11.3km/h 5% 0.00in /  0mm 661.0 W/m2
14:19 80.8 °F /  27.1 °C 3.6 °F /  -15.8 °C 29.88in /  1011.7hPa NNW 4.9mph /  7.9km/h 6.0mph /  9.7km/h 5% 0.00in /  0mm 647.0 W/m2
14:27 80.8 °F /  27.1 °C 3.6 °F /  -15.8 °C 29.87in /  1011.4hPa Calm   2.0mph /  3.2km/h 5% 0.00in /  0mm 622.0 W/m2
14:33 80.8 °F /  27.1 °C 3.6 °F /  -15.8 °C 29.87in /  1011.4hPa Calm   7.0mph /  11.3km/h 5% 0.00in /  0mm 606.0 W/m2
14:39 81.0 °F /  27.2 °C -1.1 °F /  -18.4 °C 29.87in /  1011.4hPa North 8.1mph /  13km/h 10.0mph /  16.1km/h 4% 0.00in /  0mm 587.0 W/m2
14:45 81.0 °F /  27.2 °C -1.1 °F /  -18.4 °C 29.87in /  1011.4hPa Calm   5.0mph /  8km/h 4% 0.00in /  0mm 570.0 W/m2
14:51 81.0 °F /  27.2 °C 3.7 °F /  -15.7 °C 29.86in /  1011.1hPa North 2.9mph /  4.7km/h 5.0mph /  8km/h 5% 0.00in /  0mm 547.0 W/m2
14:57 81.0 °F /  27.2 °C 3.7 °F /  -15.7 °C 29.86in /  1011.1hPa NNE 2.0mph /  3.2km/h 4.0mph /  6.4km/h 5% 0.00in /  0mm 531.0 W/m2
15:04 81.1 °F /  27.3 °C 3.7 °F /  -15.7 °C 29.86in /  1011.1hPa NNE 4.0mph /  6.4km/h 6.0mph /  9.7km/h 5% 0.00in /  0mm 512.0 W/m2
15:10 81.0 °F /  27.2 °C 3.7 °F /  -15.7 °C 29.86in /  1011.1hPa NNW 4.9mph /  7.9km/h 8.0mph /  12.9km/h 5% 0.00in /  0mm 494.0 W/m2
15:16 80.8 °F /  27.1 °C 3.6 °F /  -15.8 °C 29.86in /  1011.1hPa NNW 2.9mph /  4.7km/h 6.0mph /  9.7km/h 5% 0.00in /  0mm 473.0 W/m2
15:22 81.0 °F /  27.2 °C 3.7 °F /  -15.7 °C 29.86in /  1011.1hPa South 2.0mph /  3.2km/h 3.0mph /  4.8km/h 5% 0.00in /  0mm 450.0 W/m2
15:28 81.0 °F /  27.2 °C 3.7 °F /  -15.7 °C 29.86in /  1011.1hPa Calm   2.0mph /  3.2km/h 5% 0.00in /  0mm 427.0 W/m2
15:34 80.8 °F /  27.1 °C 3.6 °F /  -15.8 °C 29.86in /  1011.1hPa North 2.9mph /  4.7km/h 7.0mph /  11.3km/h 5% 0.00in /  0mm 404.0 W/m2
15:40 80.8 °F /  27.1 °C -1.3 °F /  -18.5 °C 29.86in /  1011.1hPa West 2.0mph /  3.2km/h 4.0mph /  6.4km/h 4% 0.00in /  0mm 383.0 W/m2
15:46 81.0 °F /  27.2 °C -1.1 °F /  -18.4 °C 29.86in /  1011.1hPa West 0.9mph /  1.4km/h 5.0mph /  8km/h 4% 0.00in /  0mm 367.0 W/m2
15:53 81.0 °F /  27.2 °C 3.7 °F /  -15.7 °C 29.86in /  1011.1hPa Calm   3.0mph /  4.8km/h 5% 0.00in /  0mm 345.0 W/m2
15:57 80.8 °F /  27.1 °C 3.6 °F /  -15.8 °C 29.86in /  1011.1hPa SW 0.9mph /  1.4km/h 3.0mph /  4.8km/h 5% 0.00in /  0mm 327.0 W/m2
16:03 80.2 °F /  26.8 °C 3.2 °F /  -16 °C 29.87in /  1011.4hPa ENE 0.9mph /  1.4km/h 3.0mph /  4.8km/h 5% 0.00in /  0mm 308.0 W/m2
16:09 79.9 °F /  26.6 °C 6.8 °F /  -14 °C 29.86in /  1011.1hPa ENE 2.0mph /  3.2km/h 6.0mph /  9.7km/h 6% 0.00in /  0mm 281.0 W/m2
16:15 79.7 °F /  26.5 °C 2.8 °F /  -16.2 °C 29.86in /  1011.1hPa NNE 2.0mph /  3.2km/h 4.0mph /  6.4km/h 5% 0.00in /  0mm 42.0 W/m2
16:21 79.7 °F /  26.5 °C 2.8 °F /  -16.2 °C 29.86in /  1011.1hPa NW 0.9mph /  1.4km/h 2.0mph /  3.2km/h 5% 0.00in /  0mm 40.0 W/m2
16:27 79.5 °F /  26.4 °C 2.7 °F /  -16.3 °C 29.87in /  1011.4hPa WSW 0.9mph /  1.4km/h 2.0mph /  3.2km/h 5% 0.00in /  0mm 125.0 W/m2
16:33 79.3 °F /  26.3 °C 2.5 °F /  -16.4 °C 29.87in /  1011.4hPa WSW 0.9mph /  1.4km/h 5.0mph /  8km/h 5% 0.00in /  0mm 125.0 W/m2
16:39 79.2 °F /  26.2 °C 2.5 °F /  -16.4 °C 29.87in /  1011.4hPa WNW 2.0mph /  3.2km/h 2.0mph /  3.2km/h 5% 0.00in /  0mm 56.0 W/m2
16:46 78.8 °F /  26 °C 2.1 °F /  -16.6 °C 29.87in /  1011.4hPa NW 0.9mph /  1.4km/h 3.0mph /  4.8km/h 5% 0.00in /  0mm 76.0 W/m2
16:52 78.4 °F /  25.8 °C 1.9 °F /  -16.7 °C 29.87in /  1011.4hPa Calm   2.0mph /  3.2km/h 5% 0.00in /  0mm 51.0 W/m2
16:58 78.1 °F /  25.6 °C 1.6 °F /  -16.9 °C 29.87in /  1011.4hPa Calm   3.0mph /  4.8km/h 5% 0.00in /  0mm 32.0 W/m2
17:04 77.5 °F /  25.3 °C 1.2 °F /  -17.1 °C 29.87in /  1011.4hPa Calm   2.0mph /  3.2km/h 5% 0.00in /  0mm 26.0 W/m2
17:10 77.0 °F /  25 °C 0.9 °F /  -17.3 °C 29.87in /  1011.4hPa West 2.0mph /  3.2km/h 3.0mph /  4.8km/h 5% 0.00in /  0mm 19.0 W/m2
17:16 76.5 °F /  24.7 °C 4.5 °F /  -15.3 °C 29.87in /  1011.4hPa Calm   2.0mph /  3.2km/h 6% 0.00in /  0mm 16.0 W/m2
17:22 75.7 °F /  24.3 °C 3.9 °F /  -15.6 °C 29.88in /  1011.7hPa Calm   1.0mph /  1.6km/h 6% 0.00in /  0mm 12.0 W/m2
17:28 75.2 °F /  24 °C 6.8 °F /  -14 °C 29.88in /  1011.7hPa WSW 0.9mph /  1.4km/h 1.0mph /  1.6km/h 7% 0.00in /  0mm 9.0 W/m2
17:34 74.5 °F /  23.6 °C 6.3 °F /  -14.3 °C 29.88in /  1011.7hPa Calm     7% 0.00in /  0mm 7.0 W/m2
17:40 73.8 °F /  23.2 °C 8.8 °F /  -12.9 °C 29.88in /  1011.7hPa Calm     8% 0.00in /  0mm 0.0 W/m2
17:46 72.9 °F /  22.7 °C 10.8 °F /  -11.8 °C 29.88in /  1011.7hPa Calm   2.0mph /  3.2km/h 9% 0.00in /  0mm 0.0 W/m2
17:52 71.8 °F /  22.1 °C 9.9 °F /  -12.3 °C 29.88in /  1011.7hPa Calm     9% 0.00in /  0mm 0.0 W/m2
17:59 70.9 °F /  21.6 °C 9.1 °F /  -12.7 °C 29.88in /  1011.7hPa Calm     9% 0.00in /  0mm 0.0 W/m2
18:05 70.0 °F /  21.1 °C 8.6 °F /  -13 °C 29.88in /  1011.7hPa Calm     9% 0.00in /  0mm 0.0 W/m2
18:11 69.3 °F /  20.7 °C 10.4 °F /  -12 °C 29.89in /  1012.1hPa Calm     10% 0.00in /  0mm 0.0 W/m2
18:17 68.4 °F /  20.2 °C 9.7 °F /  -12.4 °C 29.89in /  1012.1hPa Calm     10% 0.00in /  0mm 0.0 W/m2
18:23 67.6 °F /  19.8 °C 9.1 °F /  -12.7 °C 29.89in /  1012.1hPa Calm     10% 0.00in /  0mm 0.0 W/m2
18:29 66.7 °F /  19.3 °C 8.4 °F /  -13.1 °C 29.89in /  1012.1hPa Calm   1.0mph /  1.6km/h 10% 0.00in /  0mm 0.0 W/m2
18:35 65.8 °F /  18.8 °C 9.9 °F /  -12.3 °C 29.90in /  1012.4hPa Calm     11% 0.00in /  0mm 0.0 W/m2
18:41 64.8 °F /  18.2 °C 7.0 °F /  -13.9 °C 29.91in /  1012.8hPa SSE 0.9mph /  1.4km/h 3.0mph /  4.8km/h 10% 0.00in /  0mm 0.0 W/m2
18:47 63.9 °F /  17.7 °C 8.2 °F /  -13.2 °C 29.91in /  1012.8hPa Calm   1.0mph /  1.6km/h 11% 0.00in /  0mm 0.0 W/m2
18:53 63.1 °F /  17.3 °C 9.7 °F /  -12.4 °C 29.91in /  1012.8hPa Calm   1.0mph /  1.6km/h 12% 0.00in /  0mm 0.0 W/m2
18:59 62.4 °F /  16.9 °C 9.1 °F /  -12.7 °C 29.91in /  1012.8hPa Calm     12% 0.00in /  0mm 0.0 W/m2
19:05 61.7 °F /  16.5 °C 8.6 °F /  -13 °C 29.91in /  1012.8hPa Calm   2.0mph /  3.2km/h 12% 0.00in /  0mm 0.0 W/m2
19:11 61.0 °F /  16.1 °C 8.1 °F /  -13.3 °C 29.92in /  1013.1hPa Calm     12% 0.00in /  0mm 0.0 W/m2
19:17 60.4 °F /  15.8 °C 7.5 °F /  -13.6 °C 29.92in /  1013.1hPa Calm     12% 0.00in /  0mm 0.0 W/m2
19:23 59.9 °F /  15.5 °C 7.2 °F /  -13.8 °C 29.92in /  1013.1hPa Calm     12% 0.00in /  0mm 0.0 W/m2
19:29 59.4 °F /  15.2 °C 6.8 °F /  -14 °C 29.93in /  1013.4hPa Calm     12% 0.00in /  0mm 0.0 W/m2
19:35 58.8 °F /  14.9 °C 9.7 °F /  -12.4 °C 29.93in /  1013.4hPa Calm     14% 0.00in /  0mm 0.0 W/m2
19:41 58.5 °F /  14.7 °C 9.5 °F /  -12.5 °C 29.93in /  1013.4hPa Calm     14% 0.00in /  0mm 0.0 W/m2
19:47 57.9 °F /  14.4 °C 9.0 °F /  -12.8 °C 29.93in /  1013.4hPa Calm     14% 0.00in /  0mm 0.0 W/m2
19:53 57.7 °F /  14.3 °C 8.8 °F /  -12.9 °C 29.93in /  1013.4hPa Calm   1.0mph /  1.6km/h 14% 0.00in /  0mm 0.0 W/m2
19:59 57.6 °F /  14.2 °C 7.0 °F /  -13.9 °C 29.94in /  1013.8hPa Calm   2.0mph /  3.2km/h 13% 0.00in /  0mm 0.0 W/m2
20:05 57.4 °F /  14.1 °C 8.6 °F /  -13 °C 29.94in /  1013.8hPa Calm   1.0mph /  1.6km/h 14% 0.00in /  0mm 0.0 W/m2
20:11 57.2 °F /  14 °C 6.8 °F /  -14 °C 29.95in /  1014.1hPa Calm   3.0mph /  4.8km/h 13% 0.00in /  0mm 0.0 W/m2
20:17 57.2 °F /  14 °C 6.8 °F /  -14 °C 29.95in /  1014.1hPa Calm     13% 0.00in /  0mm 0.0 W/m2
20:23 57.0 °F /  13.9 °C 6.6 °F /  -14.1 °C 29.95in /  1014.1hPa Calm     13% 0.00in /  0mm 0.0 W/m2
20:29 56.7 °F /  13.7 °C 8.1 °F /  -13.3 °C 29.96in /  1014.4hPa SSW 2.0mph /  3.2km/h 2.0mph /  3.2km/h 14% 0.00in /  0mm 0.0 W/m2
20:35 56.3 °F /  13.5 °C 6.1 °F /  -14.4 °C 29.96in /  1014.4hPa South 0.9mph /  1.4km/h 2.0mph /  3.2km/h 13% 0.00in /  0mm 0.0 W/m2
20:41 55.9 °F /  13.3 °C 7.3 °F /  -13.7 °C 29.96in /  1014.4hPa Calm   1.0mph /  1.6km/h 14% 0.00in /  0mm 0.0 W/m2
20:47 55.8 °F /  13.2 °C 8.8 °F /  -12.9 °C 29.96in /  1014.4hPa Calm     15% 0.00in /  0mm 0.0 W/m2
20:53 55.6 °F /  13.1 °C 8.6 °F /  -13 °C 29.96in /  1014.4hPa Calm     15% 0.00in /  0mm 0.0 W/m2
20:59 55.4 °F /  13 °C 9.9 °F /  -12.3 °C 29.96in /  1014.4hPa Calm     16% 0.00in /  0mm 0.0 W/m2
21:05 55.0 °F /  12.8 °C 9.7 °F /  -12.4 °C 29.96in /  1014.4hPa Calm     16% 0.00in /  0mm 0.0 W/m2
21:11 54.9 °F /  12.7 °C 10.8 °F /  -11.8 °C 29.97in /  1014.8hPa Calm     17% 0.00in /  0mm 0.0 W/m2
21:17 54.5 °F /  12.5 °C 10.6 °F /  -11.9 °C 29.97in /  1014.8hPa Calm     17% 0.00in /  0mm 0.0 W/m2
21:23 54.1 °F /  12.3 °C 9.0 °F /  -12.8 °C 29.97in /  1014.8hPa Calm     16% 0.00in /  0mm 0.0 W/m2
21:29 54.0 °F /  12.2 °C 7.3 °F /  -13.7 °C 29.97in /  1014.8hPa Calm     15% 0.00in /  0mm 0.0 W/m2
21:35 53.8 °F /  12.1 °C 8.6 °F /  -13 °C 29.97in /  1014.8hPa Calm     16% 0.00in /  0mm 0.0 W/m2
21:41 53.6 °F /  12 °C 8.4 °F /  -13.1 °C 29.97in /  1014.8hPa Calm   1.0mph /  1.6km/h 16% 0.00in /  0mm 0.0 W/m2
21:47 53.4 °F /  11.9 °C 8.2 °F /  -13.2 °C 29.97in /  1014.8hPa Calm     16% 0.00in /  0mm 0.0 W/m2
21:53 53.2 °F /  11.8 °C 9.5 °F /  -12.5 °C 29.97in /  1014.8hPa Calm     17% 0.00in /  0mm 0.0 W/m2
21:59 53.1 °F /  11.7 °C 8.1 °F /  -13.3 °C 29.97in /  1014.8hPa Calm     16% 0.00in /  0mm 0.0 W/m2
22:05 52.9 °F /  11.6 °C 9.3 °F /  -12.6 °C 29.97in /  1014.8hPa ESE 0.9mph /  1.4km/h 2.0mph /  3.2km/h 17% 0.00in /  0mm 0.0 W/m2
22:11 52.7 °F /  11.5 °C 10.4 °F /  -12 °C 29.97in /  1014.8hPa Calm     18% 0.00in /  0mm 0.0 W/m2
22:17 52.7 °F /  11.5 °C 9.1 °F /  -12.7 °C 29.97in /  1014.8hPa Calm   1.0mph /  1.6km/h 17% 0.00in /  0mm 0.0 W/m2
22:23 52.9 °F /  11.6 °C 9.3 °F /  -12.6 °C 29.97in /  1014.8hPa Calm   1.0mph /  1.6km/h 17% 0.00in /  0mm 0.0 W/m2
22:29 52.9 °F /  11.6 °C 9.3 °F /  -12.6 °C 29.97in /  1014.8hPa Calm   1.0mph /  1.6km/h 17% 0.00in /  0mm 0.0 W/m2
22:35 53.1 °F /  11.7 °C 10.6 °F /  -11.9 °C 29.96in /  1014.4hPa Calm     18% 0.00in /  0mm 0.0 W/m2
22:41 53.1 °F /  11.7 °C 9.3 °F /  -12.6 °C 29.96in /  1014.4hPa Calm   1.0mph /  1.6km/h 17% 0.00in /  0mm 0.0 W/m2
22:47 53.2 °F /  11.8 °C 10.8 °F /  -11.8 °C 29.96in /  1014.4hPa Calm   2.0mph /  3.2km/h 18% 0.00in /  0mm 0.0 W/m2
22:53 53.6 °F /  12 °C 9.9 °F /  -12.3 °C 29.96in /  1014.4hPa Calm   5.0mph /  8km/h 17% 0.00in /  0mm 0.0 W/m2
22:59 54.1 °F /  12.3 °C 10.2 °F /  -12.1 °C 29.96in /  1014.4hPa Calm     17% 0.00in /  0mm 0.0 W/m2
23:05 54.7 °F /  12.6 °C 10.8 °F /  -11.8 °C 29.96in /  1014.4hPa Calm     17% 0.00in /  0mm 0.0 W/m2
23:11 55.0 °F /  12.8 °C 10.9 °F /  -11.7 °C 29.96in /  1014.4hPa Calm     17% 0.00in /  0mm 0.0 W/m2
23:17 55.2 °F /  12.9 °C 11.1 °F /  -11.6 °C 29.96in /  1014.4hPa Calm     17% 0.00in /  0mm 0.0 W/m2
23:23 55.6 °F /  13.1 °C 10.0 °F /  -12.2 °C 29.96in /  1014.4hPa Calm   1.0mph /  1.6km/h 16% 0.00in /  0mm 0.0 W/m2
23:29 55.6 °F /  13.1 °C 10.0 °F /  -12.2 °C 29.96in /  1014.4hPa Calm     16% 0.00in /  0mm 0.0 W/m2
23:35 55.6 °F /  13.1 °C 10.0 °F /  -12.2 °C 29.96in /  1014.4hPa SSE 2.9mph /  4.7km/h 3.0mph /  4.8km/h 16% 0.00in /  0mm 0.0 W/m2
23:41 56.1 °F /  13.4 °C 10.6 °F /  -11.9 °C 29.96in /  1014.4hPa Calm   1.0mph /  1.6km/h 16% 0.00in /  0mm 0.0 W/m2
23:47 56.7 °F /  13.7 °C 10.9 °F /  -11.7 °C 29.96in /  1014.4hPa Calm   1.0mph /  1.6km/h 16% 0.00in /  0mm 0.0 W/m2
Olympia, Windhoek, Namibia
Compliments of Weather Underground - 3 mb